createdAt,value
2018-05-21T11:48:40.665Z,472.50
2018-05-21T11:49:40.655Z,461.25
2018-05-21T11:50:40.693Z,450.00
2018-05-21T11:51:40.623Z,444.38
2018-05-21T11:52:40.654Z,444.38
2018-05-21T11:53:40.597Z,455.63
2018-05-21T11:54:40.588Z,466.88
2018-05-21T11:55:40.579Z,472.50
2018-05-21T11:56:40.568Z,461.25
2018-05-21T11:57:40.559Z,450.00
2018-05-21T11:58:40.559Z,438.75
2018-05-21T11:59:40.556Z,438.75
2018-05-21T12:00:40.530Z,433.13
2018-05-21T12:01:40.523Z,427.50
2018-05-21T12:02:40.583Z,427.50
2018-05-21T12:03:40.533Z,427.50
2018-05-21T12:04:40.489Z,433.13
2018-05-21T12:05:40.522Z,421.88
2018-05-21T12:06:40.480Z,416.25
2018-05-21T12:07:40.604Z,416.25
2018-05-21T12:36:20.659Z,388.13
2018-05-21T12:37:20.627Z,393.75
2018-05-21T12:38:20.605Z,416.25
2018-05-21T12:39:20.593Z,433.13
2018-05-21T12:40:20.584Z,444.38
2018-05-21T12:41:20.565Z,466.88
2018-05-21T12:42:20.550Z,500.63
2018-05-21T12:43:20.549Z,540.00
2018-05-21T12:44:20.527Z,601.88
2018-05-21T12:45:20.507Z,961.88
2018-05-21T12:46:20.502Z,1445.63
2018-05-21T12:47:20.489Z,1631.25
2018-05-21T12:48:20.493Z,1687.50
2018-05-21T12:49:20.473Z,1721.25
2018-05-21T12:50:20.460Z,1726.88
2018-05-21T12:51:20.451Z,1738.13
2018-05-21T12:52:20.445Z,1715.63
2018-05-21T12:53:20.429Z,1642.50
2018-05-21T12:54:20.437Z,1676.25
2018-05-21T12:55:20.416Z,1614.38
2018-05-21T12:56:20.417Z,1563.75
2018-05-21T12:57:20.408Z,1546.88
2018-05-21T12:58:20.408Z,1501.88
2018-05-21T12:59:20.399Z,1181.25
2018-05-21T13:00:20.392Z,1417.50
2018-05-21T13:01:20.441Z,1513.13
2018-05-21T13:02:20.384Z,1524.38
2018-05-21T13:03:20.379Z,1580.63
2018-05-21T13:04:20.376Z,1591.88
2018-05-21T13:05:20.401Z,1591.88
2018-05-21T13:06:20.368Z,1575.00
2018-05-21T13:07:20.365Z,1603.13
2018-05-21T13:08:20.362Z,1659.38
2018-05-21T13:09:20.361Z,1648.13
2018-05-21T13:10:20.357Z,1642.50
2018-05-21T13:11:20.355Z,1563.75
2018-05-21T13:12:20.353Z,1558.13
2018-05-21T13:13:20.353Z,1558.13
2018-05-21T13:14:20.372Z,1524.38
2018-05-21T13:15:20.358Z,1530.00
2018-05-21T13:16:20.350Z,545.63
2018-05-21T13:17:20.350Z,596.25
2018-05-21T13:18:20.350Z,691.88
2018-05-21T13:19:20.346Z,1569.38
2018-05-21T13:20:20.344Z,1282.50
2018-05-21T13:21:20.339Z,506.25
2018-05-21T13:22:20.343Z,1518.75
2018-05-21T13:23:20.342Z,1530.00
2018-05-21T13:24:20.365Z,556.88
2018-05-21T13:25:20.337Z,450.00
2018-05-21T13:26:20.347Z,1029.38
2018-05-21T13:27:20.335Z,371.25
2018-05-21T13:28:20.336Z,382.50
2018-05-21T13:29:20.342Z,500.63
2018-05-21T13:30:20.330Z,1518.75
2018-05-21T13:31:20.328Z,1473.75
2018-05-21T13:32:20.329Z,1468.13
2018-05-21T13:33:20.321Z,1485.00
2018-05-21T13:34:20.320Z,1485.00
2018-05-21T13:35:20.321Z,1468.13
2018-05-21T13:36:20.320Z,1485.00
2018-05-21T13:37:20.313Z,1451.25
2018-05-21T13:38:20.312Z,1434.38
2018-05-21T13:39:20.306Z,1518.75
2018-05-21T13:40:20.312Z,1513.13
2018-05-21T13:41:20.307Z,1507.50
2018-05-21T13:42:20.306Z,1518.75
2018-05-21T13:43:20.404Z,1513.13
2018-05-21T13:44:20.309Z,1530.00
2018-05-21T13:45:20.306Z,1530.00
2018-05-21T13:46:20.304Z,1501.88
2018-05-21T13:47:20.300Z,1490.63
2018-05-21T13:48:20.311Z,1473.75
2018-05-21T13:49:20.296Z,1485.00
2018-05-21T13:50:20.304Z,1479.38
2018-05-21T13:51:20.302Z,1456.88
2018-05-21T13:52:20.407Z,1468.13
2018-05-21T13:53:20.306Z,1428.75
2018-05-21T13:54:20.305Z,1456.88
2018-05-21T13:55:20.312Z,1485.00
2018-05-21T13:56:20.308Z,1501.88
2018-05-21T13:57:20.306Z,1513.13
2018-05-21T13:58:20.303Z,1479.38
2018-05-21T13:59:20.303Z,1485.00
2018-05-21T14:00:20.301Z,1479.38
2018-05-21T14:01:20.307Z,1496.25
2018-05-21T14:02:20.307Z,1445.63
2018-05-21T14:03:20.322Z,1423.13
2018-05-21T14:04:20.328Z,1406.25
2018-05-21T14:05:20.325Z,1299.38
2018-05-21T14:06:20.339Z,1248.75
2018-05-21T14:07:20.318Z,1209.38
2018-05-21T14:08:20.319Z,1321.88
2018-05-21T14:09:20.315Z,1355.63
2018-05-21T14:10:20.353Z,1372.50
2018-05-21T14:11:20.352Z,1265.63
2018-05-21T14:12:20.328Z,1276.88
2018-05-21T14:13:20.330Z,1248.75
2018-05-21T14:14:20.335Z,1316.25
2018-05-21T14:15:20.327Z,1327.50
2018-05-21T14:16:20.419Z,1395.00
2018-05-21T14:17:20.363Z,1462.50
2018-05-21T14:18:20.326Z,1524.38
2018-05-21T14:19:20.324Z,1321.88
2018-05-21T14:20:20.327Z,506.25
2018-05-21T14:21:20.329Z,399.38
2018-05-21T14:22:20.326Z,382.50
2018-05-21T14:23:20.335Z,382.50
2018-05-21T14:24:20.354Z,410.63
2018-05-21T14:25:20.418Z,545.63
2018-05-21T14:26:20.335Z,888.75
2018-05-21T14:27:20.337Z,753.75
2018-05-21T14:28:20.338Z,1085.63
2018-05-21T14:29:20.336Z,1389.38
2018-05-21T14:30:20.339Z,1350.00
2018-05-21T14:31:20.331Z,1428.75
2018-05-21T14:32:20.342Z,1462.50
2018-05-21T14:33:20.439Z,1158.75
2018-05-21T14:34:20.324Z,1603.13
2018-05-21T14:35:20.321Z,1001.25
2018-05-21T14:36:20.328Z,1243.13
2018-05-21T14:37:20.335Z,1068.75
2018-05-21T14:38:20.333Z,1040.63
2018-05-21T14:39:20.333Z,714.38
2018-05-21T14:40:20.325Z,607.50
2018-05-21T14:41:20.338Z,641.25
2018-05-21T14:42:20.310Z,669.38
2018-05-21T14:43:20.326Z,573.75
2018-05-21T14:44:20.353Z,916.88
2018-05-21T14:45:20.308Z,675.00
2018-05-21T14:46:20.321Z,444.38
2018-05-21T14:47:20.314Z,630.00
2018-05-21T14:48:20.312Z,950.63
2018-05-21T14:49:20.302Z,1147.50
2018-05-21T14:50:20.297Z,1023.75
2018-05-21T14:51:20.292Z,1282.50
2018-05-21T14:52:20.300Z,1361.25
2018-05-21T14:53:20.288Z,1400.63
2018-05-21T14:54:20.298Z,1366.88
2018-05-21T14:55:20.287Z,1434.38
2018-05-21T14:56:20.291Z,1423.13
2018-05-21T14:57:20.298Z,1428.75
2018-05-21T14:58:20.353Z,579.38
2018-05-21T14:59:20.272Z,607.50
2018-05-21T15:00:20.331Z,1462.50
2018-05-21T15:01:20.277Z,1434.38
2018-05-21T15:02:20.285Z,1361.25
2018-05-21T15:03:20.262Z,1113.75
2018-05-21T15:04:20.282Z,624.38
2018-05-21T15:05:20.255Z,585.00
2018-05-21T15:06:20.260Z,579.38
2018-05-21T15:07:20.259Z,883.13
2018-05-21T15:08:20.268Z,1338.75
2018-05-21T15:09:20.259Z,1344.38
2018-05-21T15:10:20.273Z,1327.50
2018-05-21T15:11:20.258Z,1378.13
2018-05-21T15:12:20.250Z,1366.88
2018-05-21T15:13:20.245Z,1361.25
2018-05-21T15:14:20.254Z,1355.63
2018-05-21T15:15:20.240Z,1001.25
2018-05-21T15:16:20.250Z,573.75
2018-05-21T15:17:20.246Z,568.13
2018-05-21T15:18:20.245Z,1344.38
2018-05-21T15:19:20.236Z,1350.00
2018-05-21T15:20:20.245Z,1271.25
2018-05-21T15:21:20.251Z,1096.88
2018-05-21T15:22:20.330Z,1091.25
2018-05-21T15:23:20.229Z,961.88
2018-05-21T15:24:20.249Z,720.00
2018-05-21T15:25:20.235Z,630.00
2018-05-21T15:26:20.226Z,506.25
2018-05-21T15:27:20.228Z,478.13
2018-05-21T15:28:20.230Z,478.13
2018-05-21T15:29:20.232Z,495.00
2018-05-21T15:30:20.224Z,759.38
2018-05-21T15:31:20.250Z,905.63
2018-05-21T15:32:20.233Z,1068.75
2018-05-21T15:33:20.214Z,1108.13
2018-05-21T15:34:20.217Z,1147.50
2018-05-21T15:35:20.213Z,1153.13
2018-05-21T15:36:20.208Z,1102.50
2018-05-21T15:37:20.213Z,1057.50
2018-05-21T15:38:20.217Z,984.38
2018-05-21T15:39:20.208Z,961.88
2018-05-21T15:40:20.242Z,945.00
2018-05-21T15:41:20.192Z,911.25
2018-05-21T15:42:20.197Z,922.50
2018-05-21T15:43:20.267Z,894.38
2018-05-21T15:44:20.186Z,855.00
2018-05-21T15:45:20.177Z,804.38
2018-05-21T15:46:20.175Z,697.50
2018-05-21T15:47:20.182Z,748.13
2018-05-21T15:48:20.181Z,770.63
2018-05-21T15:49:20.191Z,770.63
2018-05-21T15:50:20.173Z,781.88
2018-05-21T15:51:20.168Z,787.50
2018-05-21T15:52:20.192Z,843.75
2018-05-21T15:53:20.172Z,540.00
2018-05-21T15:54:20.191Z,596.25
2018-05-21T15:55:20.180Z,556.88
2018-05-21T15:56:20.160Z,720.00
2018-05-21T15:57:20.153Z,770.63
2018-05-21T15:58:20.152Z,669.38
2018-05-21T15:59:20.142Z,506.25
2018-05-21T16:00:20.140Z,472.50
2018-05-21T16:01:20.138Z,489.38
2018-05-21T16:02:20.137Z,466.88
2018-05-21T16:03:20.150Z,410.63
2018-05-21T16:04:20.136Z,405.00
2018-05-21T16:05:20.131Z,466.88
2018-05-21T16:06:20.122Z,393.75
2018-05-21T16:07:20.134Z,382.50
2018-05-21T16:08:20.114Z,365.63
2018-05-21T16:09:20.117Z,365.63
2018-05-21T16:10:20.111Z,360.00
2018-05-21T16:11:20.107Z,365.63
2018-05-21T16:12:20.104Z,371.25
2018-05-21T16:13:20.099Z,376.88
2018-05-21T16:14:20.091Z,388.13
2018-05-21T16:15:20.084Z,624.38
2018-05-21T16:16:20.082Z,393.75
2018-05-21T16:17:20.074Z,388.13
2018-05-21T16:18:20.074Z,382.50
2018-05-21T16:19:20.069Z,382.50
2018-05-21T16:20:20.064Z,388.13
2018-05-21T16:21:20.061Z,393.75
2018-05-21T16:22:20.056Z,393.75
2018-05-21T16:23:20.099Z,388.13
2018-05-21T16:24:20.039Z,388.13
2018-05-21T16:25:20.049Z,376.88
2018-05-21T16:26:20.036Z,371.25
2018-05-21T16:27:20.019Z,360.00
2018-05-21T16:28:20.021Z,354.38
2018-05-21T16:29:20.005Z,343.13
2018-05-21T16:30:20.050Z,326.25
2018-05-21T16:31:20.003Z,315.00
2018-05-21T16:32:19.989Z,303.75
2018-05-21T16:33:19.991Z,292.50
2018-05-21T16:34:19.980Z,286.88
2018-05-21T16:35:19.973Z,281.25
2018-05-21T16:36:19.986Z,281.25
2018-05-21T16:37:19.995Z,292.50
2018-05-21T16:38:19.957Z,292.50
2018-05-21T16:39:19.944Z,292.50
2018-05-21T16:40:19.937Z,281.25
2018-05-21T16:41:19.935Z,270.00
2018-05-21T16:42:19.920Z,253.13
2018-05-21T16:43:19.915Z,236.25
2018-05-21T16:44:19.906Z,225.00
2018-05-21T16:45:19.903Z,208.13
2018-05-21T16:46:19.894Z,191.25
2018-05-21T16:47:19.897Z,180.00
2018-05-21T16:48:19.882Z,168.75
2018-05-21T16:49:19.871Z,163.13
2018-05-21T16:50:19.871Z,163.13
2018-05-21T16:51:19.865Z,163.13
2018-05-21T16:52:19.892Z,168.75
2018-05-21T16:53:19.865Z,174.38
2018-05-21T16:54:19.839Z,180.00
2018-05-21T16:55:19.860Z,180.00
2018-05-21T16:56:19.861Z,180.00
2018-05-21T16:57:19.835Z,180.00
2018-05-21T16:58:19.828Z,180.00
2018-05-21T16:59:19.803Z,180.00
2018-05-21T17:00:19.797Z,174.38
2018-05-21T17:01:19.775Z,174.38
2018-05-21T17:02:19.768Z,174.38
2018-05-21T17:03:19.761Z,174.38
2018-05-21T17:04:19.764Z,174.38
2018-05-21T17:05:19.743Z,180.00
2018-05-21T17:06:19.739Z,174.38
2018-05-21T17:07:19.846Z,168.75
2018-05-21T17:08:19.732Z,151.88
2018-05-21T17:09:19.708Z,140.63
2018-05-21T17:10:19.704Z,135.00
2018-05-21T17:11:19.694Z,123.75
2018-05-21T17:12:19.682Z,129.38
2018-05-21T17:13:19.705Z,123.75
2018-05-21T17:14:19.670Z,135.00
2018-05-21T17:15:19.674Z,135.00
2018-05-21T17:16:19.644Z,135.00
2018-05-21T17:17:19.646Z,135.00
2018-05-21T17:18:19.632Z,140.63
2018-05-21T17:19:19.621Z,146.25
2018-05-21T17:20:19.625Z,146.25
2018-05-21T17:21:19.603Z,157.50
2018-05-21T17:22:19.603Z,157.50
2018-05-21T17:23:19.600Z,157.50
2018-05-21T17:24:19.580Z,157.50
2018-05-21T17:25:19.569Z,163.13
2018-05-21T17:26:19.557Z,163.13
2018-05-21T17:27:19.547Z,185.63
2018-05-21T17:28:19.543Z,196.88
2018-05-21T17:29:19.549Z,213.75
2018-05-21T17:30:19.525Z,225.00
2018-05-21T17:31:19.513Z,230.63
2018-05-21T17:32:19.506Z,219.38
2018-05-21T17:33:19.489Z,208.13
2018-05-21T17:34:19.487Z,202.50
2018-05-21T17:35:19.481Z,191.25
2018-05-21T17:36:19.493Z,191.25
2018-05-21T17:37:19.458Z,191.25
2018-05-21T17:38:19.445Z,196.88
2018-05-21T17:39:19.440Z,202.50
2018-05-21T17:40:19.424Z,208.13
2018-05-21T17:41:19.422Z,208.13
2018-05-21T17:42:19.428Z,208.13
2018-05-21T17:43:19.403Z,208.13
2018-05-21T17:44:19.390Z,208.13
2018-05-21T17:45:19.409Z,208.13
2018-05-21T17:46:19.364Z,208.13
2018-05-21T17:47:19.401Z,208.13
2018-05-21T17:48:19.369Z,208.13
2018-05-21T17:49:19.389Z,208.13
2018-05-21T17:50:19.370Z,202.50
2018-05-21T17:51:19.325Z,208.13
2018-05-21T17:52:19.346Z,208.13
2018-05-21T17:53:19.319Z,208.13
2018-05-21T17:54:19.325Z,208.13
2018-05-21T17:55:19.317Z,208.13
2018-05-21T17:56:19.290Z,208.13
2018-05-21T17:57:19.288Z,202.50
2018-05-21T17:58:19.262Z,196.88
2018-05-21T17:59:19.249Z,191.25
2018-05-21T18:00:19.236Z,191.25
2018-05-21T18:01:19.239Z,185.63
2018-05-21T18:02:19.231Z,180.00
2018-05-21T18:03:19.319Z,180.00
2018-05-21T18:04:19.208Z,180.00
2018-05-21T18:05:19.196Z,174.38
2018-05-21T18:06:19.180Z,168.75
2018-05-21T18:07:19.171Z,163.13
2018-05-21T18:08:19.168Z,157.50
2018-05-21T18:09:19.157Z,146.25
2018-05-21T18:10:19.141Z,135.00
2018-05-21T18:11:19.147Z,129.38
2018-05-21T18:12:19.188Z,118.13
2018-05-21T18:13:19.138Z,112.50
2018-05-21T18:14:19.134Z,101.25
2018-05-21T18:15:19.099Z,90.00
2018-05-21T18:16:19.098Z,84.38
2018-05-21T18:17:19.081Z,73.13
2018-05-21T18:18:19.072Z,67.50
2018-05-21T18:19:19.057Z,61.88
2018-05-21T18:20:19.061Z,56.25
2018-05-21T18:21:19.164Z,50.63
2018-05-21T18:22:19.044Z,45.00
2018-05-21T18:23:19.019Z,45.00
2018-05-21T18:24:19.016Z,45.00
2018-05-21T18:25:19.005Z,39.38
2018-05-21T18:26:18.984Z,39.38
2018-05-21T18:27:18.973Z,39.38
2018-05-21T18:28:18.972Z,39.38
2018-05-21T18:29:18.969Z,39.38
2018-05-21T18:30:19.014Z,39.38
2018-05-21T18:31:18.940Z,39.38
2018-05-21T18:32:18.924Z,39.38
2018-05-21T18:33:18.920Z,39.38
2018-05-21T18:34:18.911Z,39.38
2018-05-21T18:35:18.901Z,39.38
2018-05-21T18:36:18.895Z,39.38
2018-05-21T18:37:18.875Z,39.38
2018-05-21T18:38:18.894Z,39.38
2018-05-21T18:39:18.856Z,39.38
2018-05-21T18:40:18.842Z,39.38
2018-05-21T18:41:18.835Z,39.38
2018-05-21T18:42:18.902Z,39.38
2018-05-21T18:43:18.822Z,39.38
2018-05-21T18:44:18.807Z,33.75
2018-05-21T18:45:18.796Z,33.75
2018-05-21T18:46:18.798Z,33.75
2018-05-21T18:47:18.781Z,33.75
2018-05-21T18:48:18.814Z,33.75
2018-05-21T18:49:18.743Z,33.75
2018-05-21T18:50:18.732Z,33.75
2018-05-21T18:51:18.722Z,28.13
2018-05-21T18:52:18.734Z,28.13
2018-05-21T18:53:18.710Z,28.13
2018-05-21T18:54:18.706Z,28.13
2018-05-21T18:55:18.684Z,28.13
2018-05-21T18:56:18.665Z,28.13
2018-05-21T18:57:18.705Z,28.13
2018-05-21T18:58:18.644Z,28.13
2018-05-21T18:59:18.650Z,28.13
2018-05-21T19:00:18.657Z,28.13
2018-05-21T19:01:18.634Z,28.13
2018-05-21T19:02:18.604Z,28.13
2018-05-21T19:03:18.596Z,28.13
2018-05-21T19:04:18.580Z,22.50
2018-05-21T19:05:18.568Z,22.50
2018-05-21T19:06:18.565Z,22.50
2018-05-21T19:07:18.547Z,16.88
2018-05-21T19:08:18.535Z,16.88
2018-05-21T19:09:18.528Z,16.88
2018-05-21T19:10:18.512Z,16.88
2018-05-21T19:11:18.497Z,16.88
2018-05-21T19:12:18.489Z,16.88
2018-05-21T19:13:18.474Z,11.25
2018-05-21T19:14:18.468Z,11.25
2018-05-21T19:15:18.566Z,11.25
2018-05-21T19:16:18.443Z,11.25
2018-05-21T19:17:18.435Z,11.25
2018-05-21T19:18:18.415Z,11.25
2018-05-21T19:19:18.409Z,5.63
2018-05-21T19:20:18.392Z,5.63
2018-05-21T19:21:18.388Z,5.63
2018-05-21T19:22:18.366Z,5.63
2018-05-21T19:23:18.366Z,5.63
2018-05-21T19:24:18.344Z,5.63
2018-05-21T19:25:18.337Z,5.63
2018-05-21T19:26:18.324Z,0.00
2018-05-21T19:27:18.313Z,0.00
2018-05-21T19:28:18.302Z,0.00
2018-05-21T19:29:18.288Z,0.00
2018-05-21T19:30:18.275Z,0.00
2018-05-21T19:31:18.265Z,0.00
2018-05-21T19:32:18.247Z,0.00
2018-05-21T19:33:18.240Z,0.00
2018-05-21T19:34:18.241Z,0.00
2018-05-21T19:35:18.215Z,0.00
2018-05-21T19:36:18.202Z,0.00
2018-05-21T19:37:18.190Z,0.00
2018-05-21T19:38:18.178Z,0.00
2018-05-21T19:39:18.171Z,0.00
2018-05-21T19:40:18.216Z,0.00
2018-05-21T19:41:18.133Z,0.00
2018-05-21T19:42:18.121Z,0.00
2018-05-21T19:43:18.117Z,0.00
2018-05-21T19:44:18.107Z,0.00
2018-05-21T19:45:18.088Z,0.00
2018-05-21T19:46:18.080Z,0.00
2018-05-21T19:47:18.062Z,0.00
2018-05-21T19:48:18.056Z,0.00
2018-05-21T19:49:18.036Z,0.00
2018-05-21T19:50:18.028Z,0.00
2018-05-21T19:51:18.009Z,0.00
2018-05-21T19:52:18.006Z,0.00
2018-05-21T19:53:18.001Z,0.00
2018-05-21T19:55:03.176Z,0.00
2018-05-21T19:56:03.156Z,0.00
2018-05-21T19:57:03.137Z,0.00
2018-05-21T19:58:03.122Z,0.00
2018-05-21T19:59:03.127Z,0.00
2018-05-21T20:00:03.101Z,0.00
2018-05-21T20:01:03.089Z,0.00
2018-05-21T20:02:03.077Z,0.00
2018-05-21T20:03:03.067Z,0.00
2018-05-21T20:04:03.051Z,0.00
2018-05-21T20:05:03.042Z,0.00
2018-05-21T20:06:03.022Z,0.00
2018-05-21T20:07:03.012Z,0.00
2018-05-21T20:08:03.003Z,0.00
2018-05-21T20:09:02.987Z,0.00
2018-05-21T20:10:02.986Z,0.00
2018-05-21T20:11:02.962Z,0.00
2018-05-21T20:12:02.949Z,0.00
2018-05-21T20:13:02.938Z,0.00
2018-05-21T20:14:02.928Z,0.00
2018-05-21T20:15:02.912Z,0.00
2018-05-21T20:16:02.899Z,0.00
2018-05-21T20:17:02.885Z,0.00
2018-05-21T20:18:02.868Z,0.00
2018-05-21T20:19:02.855Z,0.00
2018-05-21T20:20:02.840Z,0.00
2018-05-21T20:21:02.838Z,0.00
2018-05-21T20:22:02.827Z,0.00
2018-05-21T20:23:02.810Z,0.00
2018-05-21T20:24:02.876Z,0.00
2018-05-21T20:25:02.780Z,0.00
2018-05-21T20:26:02.771Z,0.00
2018-05-21T20:27:02.756Z,0.00
2018-05-21T20:28:02.747Z,0.00
2018-05-21T20:29:02.728Z,0.00
2018-05-21T20:30:02.712Z,0.00
2018-05-21T20:31:02.701Z,0.00
2018-05-21T20:32:02.697Z,0.00
2018-05-21T20:33:02.676Z,0.00
2018-05-21T20:34:02.658Z,0.00
2018-05-21T20:35:02.680Z,0.00
2018-05-21T20:36:02.643Z,0.00
2018-05-21T20:37:02.635Z,0.00
2018-05-21T20:38:02.620Z,0.00
2018-05-21T20:39:02.604Z,0.00
2018-05-21T20:40:02.574Z,0.00
2018-05-21T20:41:02.590Z,0.00
2018-05-21T20:42:02.555Z,0.00
2018-05-21T20:43:02.546Z,0.00
2018-05-21T20:44:02.530Z,0.00
2018-05-21T20:45:02.514Z,0.00
2018-05-21T20:46:02.506Z,0.00
2018-05-21T20:47:02.486Z,0.00
2018-05-21T20:48:02.499Z,0.00
2018-05-21T20:49:02.465Z,0.00
2018-05-21T20:50:02.450Z,0.00
2018-05-21T20:51:02.439Z,0.00
2018-05-21T20:52:02.417Z,0.00
2018-05-21T20:53:02.414Z,0.00
2018-05-21T20:54:02.394Z,0.00
2018-05-21T20:55:02.402Z,0.00
2018-05-21T20:56:02.405Z,0.00
2018-05-21T20:57:02.379Z,0.00
2018-05-21T20:58:02.334Z,0.00
2018-05-21T20:59:02.436Z,0.00
2018-05-21T21:00:02.327Z,0.00
2018-05-21T21:01:02.302Z,0.00
2018-05-21T21:02:02.291Z,0.00
2018-05-21T21:03:02.277Z,0.00
2018-05-21T21:04:02.260Z,0.00
2018-05-21T21:05:02.245Z,0.00
2018-05-21T21:06:02.235Z,0.00
2018-05-21T21:07:02.217Z,0.00
2018-05-21T21:08:02.211Z,0.00
2018-05-21T21:09:02.198Z,0.00
2018-05-21T21:10:02.180Z,0.00
2018-05-21T21:11:02.195Z,0.00
2018-05-21T21:12:02.149Z,0.00
2018-05-21T21:13:02.142Z,0.00
2018-05-21T21:14:02.127Z,0.00
2018-05-21T21:15:02.154Z,0.00
2018-05-21T21:16:02.091Z,0.00
2018-05-21T21:17:02.082Z,0.00
2018-05-21T21:18:02.080Z,0.00
2018-05-21T21:19:02.063Z,0.00
2018-05-21T21:20:02.047Z,0.00
2018-05-21T21:21:02.024Z,0.00
2018-05-21T21:22:02.018Z,0.00
2018-05-21T21:23:02.014Z,0.00
2018-05-21T21:24:02.003Z,0.00
2018-05-21T21:25:02.052Z,0.00
2018-05-21T21:26:01.963Z,0.00
2018-05-21T21:27:01.943Z,0.00
2018-05-21T21:28:01.941Z,0.00
2018-05-21T21:29:01.921Z,0.00
2018-05-21T21:30:01.909Z,0.00
2018-05-21T21:31:01.892Z,0.00
2018-05-21T21:32:01.891Z,0.00
2018-05-21T21:33:01.867Z,0.00
2018-05-21T21:34:01.849Z,0.00
2018-05-21T21:35:01.836Z,0.00
2018-05-21T21:36:01.823Z,0.00
2018-05-21T21:37:01.809Z,0.00
2018-05-21T21:38:01.794Z,0.00
2018-05-21T21:39:01.784Z,0.00
2018-05-21T21:40:01.777Z,0.00
2018-05-21T21:41:01.752Z,0.00
2018-05-21T21:42:01.738Z,0.00
2018-05-21T21:43:01.724Z,0.00
2018-05-21T21:44:01.723Z,0.00
2018-05-21T21:45:01.700Z,0.00
2018-05-21T21:46:01.681Z,0.00
2018-05-21T21:47:01.672Z,0.00
2018-05-21T21:48:01.652Z,0.00
2018-05-21T21:49:01.644Z,0.00
2018-05-21T21:50:01.626Z,0.00
2018-05-21T21:51:01.615Z,0.00
2018-05-21T21:52:01.603Z,0.00
2018-05-21T21:53:01.584Z,0.00
2018-05-21T21:54:01.601Z,0.00
2018-05-21T21:55:01.575Z,0.00
2018-05-21T21:56:01.577Z,0.00
2018-05-21T21:57:01.529Z,0.00
2018-05-21T21:58:01.566Z,0.00
2018-05-21T21:59:01.517Z,0.00
2018-05-21T22:00:01.503Z,0.00
2018-05-21T22:01:01.490Z,0.00
2018-05-21T22:02:01.462Z,0.00
2018-05-21T22:03:01.461Z,0.00
2018-05-21T22:04:01.429Z,0.00
2018-05-21T22:05:01.412Z,0.00
2018-05-21T22:06:01.419Z,0.00
2018-05-21T22:07:01.407Z,0.00
2018-05-21T22:08:01.412Z,0.00
2018-05-21T22:09:01.380Z,0.00
2018-05-21T22:10:01.346Z,0.00
2018-05-21T22:11:01.330Z,0.00
2018-05-21T22:12:01.314Z,0.00
2018-05-21T22:13:01.298Z,0.00
2018-05-21T22:14:01.283Z,0.00
2018-05-21T22:15:01.272Z,0.00
2018-05-21T22:16:01.315Z,0.00
2018-05-21T22:17:01.264Z,0.00
2018-05-21T22:18:01.236Z,0.00
2018-05-21T22:19:01.231Z,0.00
2018-05-21T22:20:01.204Z,0.00
2018-05-21T22:21:01.187Z,0.00
2018-05-21T22:22:01.171Z,0.00
2018-05-21T22:23:01.159Z,0.00
2018-05-21T22:24:01.151Z,0.00
2018-05-21T22:25:01.124Z,0.00
2018-05-21T22:26:01.115Z,0.00
2018-05-21T22:27:01.118Z,0.00
2018-05-21T22:28:01.106Z,0.00
2018-05-21T22:29:01.080Z,0.00
2018-05-21T22:30:01.060Z,0.00
2018-05-21T22:31:01.045Z,0.00
2018-05-21T22:32:01.027Z,0.00
2018-05-21T22:33:01.019Z,0.00
2018-05-21T22:34:01.001Z,0.00
2018-05-21T22:35:00.982Z,0.00
2018-05-21T22:36:00.981Z,0.00
2018-05-21T22:37:00.952Z,0.00
2018-05-21T22:38:00.934Z,0.00
2018-05-21T22:39:00.934Z,0.00
2018-05-21T22:40:00.912Z,0.00
2018-05-21T22:41:00.906Z,0.00
2018-05-21T22:42:00.887Z,0.00
2018-05-21T22:43:00.875Z,0.00
2018-05-21T22:44:00.861Z,0.00
2018-05-21T22:45:00.840Z,0.00
2018-05-21T22:46:00.829Z,0.00
2018-05-21T22:47:00.829Z,0.00
2018-05-21T22:48:00.798Z,0.00
2018-05-21T22:49:00.787Z,0.00
2018-05-21T22:50:00.767Z,0.00
2018-05-21T22:51:00.756Z,0.00
2018-05-21T22:52:00.747Z,0.00
2018-05-21T22:53:00.730Z,0.00
2018-05-21T22:54:00.719Z,0.00
2018-05-21T22:55:00.701Z,0.00
2018-05-21T22:56:00.686Z,0.00
2018-05-21T22:57:00.680Z,0.00
2018-05-21T22:58:00.662Z,0.00
2018-05-21T22:59:00.647Z,0.00
2018-05-21T23:00:00.626Z,0.00
2018-05-21T23:01:00.621Z,0.00
2018-05-21T23:02:00.596Z,0.00
2018-05-21T23:03:00.646Z,0.00
2018-05-21T23:04:00.562Z,0.00
2018-05-21T23:05:00.570Z,0.00
2018-05-21T23:06:00.552Z,0.00
2018-05-21T23:07:00.525Z,0.00
2018-05-21T23:08:00.512Z,0.00
2018-05-21T23:09:00.496Z,0.00
2018-05-21T23:10:00.479Z,0.00
2018-05-21T23:11:00.470Z,0.00
2018-05-21T23:12:00.462Z,0.00
2018-05-21T23:13:00.436Z,0.00
2018-05-21T23:14:00.422Z,0.00
2018-05-21T23:15:00.408Z,0.00
2018-05-21T23:16:00.393Z,0.00
2018-05-21T23:17:00.379Z,0.00
2018-05-21T23:18:00.369Z,0.00
2018-05-21T23:19:00.350Z,0.00
2018-05-21T23:20:00.332Z,0.00
2018-05-21T23:21:00.317Z,0.00
2018-05-21T23:22:00.306Z,0.00
2018-05-21T23:23:00.294Z,0.00
2018-05-21T23:24:00.272Z,0.00
2018-05-21T23:25:00.260Z,0.00
2018-05-21T23:26:00.264Z,0.00
2018-05-21T23:27:00.235Z,0.00
2018-05-21T23:28:00.218Z,0.00
2018-05-21T23:29:00.250Z,0.00
2018-05-21T23:30:00.188Z,0.00
2018-05-21T23:31:00.166Z,0.00
2018-05-21T23:32:00.175Z,0.00
2018-05-21T23:33:00.143Z,0.00
2018-05-21T23:34:00.135Z,0.00
2018-05-21T23:35:00.112Z,0.00
2018-05-21T23:36:00.110Z,0.00
2018-05-21T23:37:00.079Z,0.00
2018-05-21T23:38:00.086Z,0.00
2018-05-21T23:39:00.051Z,0.00
2018-05-21T23:40:00.035Z,0.00
2018-05-21T23:41:00.036Z,0.00
2018-05-21T23:42:00.010Z,0.00
2018-05-21T23:42:59.990Z,0.00
2018-05-21T23:43:59.979Z,0.00
2018-05-21T23:44:59.986Z,0.00
2018-05-21T23:45:59.952Z,0.00
2018-05-21T23:46:59.941Z,0.00
2018-05-21T23:47:59.923Z,0.00
2018-05-21T23:48:59.908Z,0.00
2018-05-21T23:49:59.893Z,0.00
2018-05-21T23:50:59.965Z,0.00
2018-05-21T23:51:59.863Z,0.00
2018-05-21T23:52:59.851Z,0.00
2018-05-21T23:53:59.838Z,0.00
2018-05-21T23:54:59.828Z,0.00
2018-05-21T23:55:59.820Z,0.00
2018-05-21T23:56:59.790Z,0.00
2018-05-21T23:57:59.780Z,0.00
2018-05-21T23:58:59.770Z,0.00
2018-05-21T23:59:59.763Z,0.00
